Time;durP1;ratioP1;P1;durP2;ratioP2;P2;SDS_P1;SDS_P2;PMS_P1;PMS_P2;Temp;Humidity;BMP_temperature;BMP_pressure;BME280_temperature;BME280_humidity;BME280_pressure;Samples;Min_cycle;Max_cycle;Signal;HPM_P1;HPM_P2
2022/08/15 00:06:57;;;;;;;14.1;17.1;;;;;;;17.8;100;97820;;;;
2022/08/15 00:16:57;;;;;;;14.1;17.1;;;;;;;17.8;100;97810;;;;
2022/08/15 00:27:57;;;;;;;14.1;17.1;;;;;;;17.8;100;97810;;;;
2022/08/15 00:38:57;;;;;;;15.4;19.1;;;;;;;17.4;100;97800;;;;
2022/08/15 00:48:57;;;;;;;15.4;19.1;;;;;;;17.4;100;97810;;;;
2022/08/15 00:59:57;;;;;;;15.4;19.1;;;;;;;17.4;100;97800;;;;
2022/08/15 01:09:57;;;;;;;13.7;18.7;;;;;;;17.4;100;97810;;;;
2022/08/15 01:19:57;;;;;;;13.7;18.7;;;;;;;17.3;100;97800;;;;
2022/08/15 01:30:57;;;;;;;13.7;18.7;;;;;;;17.3;100;97800;;;;
2022/08/15 01:41:57;;;;;;;12.3;19.6;;;;;;;17.4;100;97780;;;;
2022/08/15 01:51:57;;;;;;;12.3;19.6;;;;;;;17.4;100;97780;;;;
2022/08/15 02:02:57;;;;;;;12.9;18.5;;;;;;;17.3;100;97780;;;;
2022/08/15 02:12:57;;;;;;;12.9;18.5;;;;;;;17.3;100;97760;;;;
2022/08/15 02:23:57;;;;;;;12.9;18.5;;;;;;;17.1;100;97760;;;;
2022/08/15 02:33:58;;;;;;;12.1;16.5;;;;;;;16.8;100;97740;;;;
2022/08/15 02:43:57;;;;;;;12.1;16.5;;;;;;;16.7;100;97730;;;;
2022/08/15 02:54:59;;;;;;;12.1;16.5;;;;;;;16.6;100;97720;;;;
2022/08/15 03:04:57;;;;;;;13.1;17.5;;;;;;;16.5;100;97730;;;;
2022/08/15 03:15:57;;;;;;;13.1;17.5;;;;;;;16.5;100;97730;;;;
2022/08/15 03:25:59;;;;;;;13.1;17.5;;;;;;;16.6;100;97720;;;;
2022/08/15 03:35:57;;;;;;;13.7;18.4;;;;;;;16.6;100;97730;;;;
2022/08/15 03:45:57;;;;;;;13.7;18.4;;;;;;;16.6;100;97740;;;;
2022/08/15 03:55:57;;;;;;;13.7;18.4;;;;;;;16.6;100;97750;;;;
2022/08/15 04:06:57;;;;;;;15.5;20.6;;;;;;;16.9;100;97770;;;;
2022/08/15 04:16:57;;;;;;;15.5;20.6;;;;;;;17.1;100;97770;;;;
2022/08/15 04:26:57;;;;;;;15.5;20.6;;;;;;;17.2;100;97770;;;;
2022/08/15 04:37:57;;;;;;;18.5;23.8;;;;;;;17.5;100;97760;;;;
2022/08/15 04:47:57;;;;;;;18.5;23.8;;;;;;;17.6;100;97760;;;;
2022/08/15 04:57:57;;;;;;;18.5;23.8;;;;;;;17.6;100;97750;;;;
2022/08/15 05:07:57;;;;;;;20;29.2;;;;;;;17.8;100;97740;;;;
2022/08/15 05:17:57;;;;;;;20;29.2;;;;;;;18.4;100;97740;;;;
2022/08/15 05:28:57;;;;;;;20;29.2;;;;;;;18.8;100;97750;;;;
2022/08/15 05:39:57;;;;;;;16;20.8;;;;;;;19;100;97760;;;;
2022/08/15 05:50:57;;;;;;;16;20.8;;;;;;;19.3;100;97770;;;;
2022/08/15 06:00:57;;;;;;;16;20.8;;;;;;;19.5;100;97770;;;;
2022/08/15 06:11:57;;;;;;;11.9;14.6;;;;;;;19.4;100;97760;;;;
2022/08/15 06:21:57;;;;;;;11.9;14.6;;;;;;;20.6;100;97770;;;;
2022/08/15 06:32:57;;;;;;;10;11.4;;;;;;;20.9;100;97770;;;;
2022/08/15 06:42:57;;;;;;;10;11.4;;;;;;;21.3;100;97780;;;;
2022/08/15 06:52:57;;;;;;;10;11.4;;;;;;;21;100;97780;;;;
2022/08/15 07:02:57;;;;;;;13.8;18.9;;;;;;;21.3;100;97780;;;;
2022/08/15 07:13:57;;;;;;;13.8;18.9;;;;;;;21.6;100;97780;;;;
2022/08/15 07:23:57;;;;;;;13.8;18.9;;;;;;;21.8;100;97790;;;;
2022/08/15 07:33:57;;;;;;;18.1;22;;;;;;;22.1;100;97780;;;;
2022/08/15 07:44:57;;;;;;;18.1;22;;;;;;;22.5;100;97790;;;;
2022/08/15 07:54:57;;;;;;;18.1;22;;;;;;;22.9;100;97790;;;;
2022/08/15 08:05:57;;;;;;;16.6;23;;;;;;;23.2;100;97790;;;;
2022/08/15 08:16:57;;;;;;;16.6;23;;;;;;;24;100;97800;;;;
2022/08/15 08:26:57;;;;;;;16.6;23;;;;;;;24.1;100;97800;;;;
2022/08/15 08:36:58;;;;;;;15.2;22.9;;;;;;;24.9;100;97810;;;;
2022/08/15 08:47:58;;;;;;;15.2;22.9;;;;;;;24.8;100;97810;;;;
2022/08/15 08:58:57;;;;;;;15.2;22.9;;;;;;;24.5;100;97810;;;;
2022/08/15 09:08:57;;;;;;;13.4;21.1;;;;;;;24.6;100;97810;;;;
2022/08/15 09:19:57;;;;;;;13.4;21.1;;;;;;;24.1;100;97810;;;;
2022/08/15 09:30:57;;;;;;;13.4;21.1;;;;;;;24.3;100;97810;;;;
2022/08/15 09:41:57;;;;;;;13.2;17;;;;;;;24.4;100;97800;;;;
2022/08/15 09:52:57;;;;;;;13.2;17;;;;;;;24.8;100;97780;;;;
2022/08/15 10:02:57;;;;;;;13;17.9;;;;;;;24.8;100;97770;;;;
2022/08/15 10:14:01;;;;;;;13;17.9;;;;;;;25.1;100;97770;;;;
2022/08/15 10:24:57;;;;;;;13;17.9;;;;;;;25.2;100;97770;;;;
2022/08/15 10:34:57;;;;;;;11.5;15.9;;;;;;;25.4;100;97760;;;;
2022/08/15 10:45:59;;;;;;;11.5;15.9;;;;;;;26;100;97770;;;;
2022/08/15 10:55:57;;;;;;;11.5;15.9;;;;;;;25.6;100;97750;;;;
2022/08/15 11:06:57;;;;;;;10.7;15.8;;;;;;;26.5;100;97760;;;;
2022/08/15 11:16:58;;;;;;;10.7;15.8;;;;;;;26.5;100;97760;;;;
2022/08/15 11:27:57;;;;;;;10.7;15.8;;;;;;;26.7;100;97750;;;;
2022/08/15 11:37:57;;;;;;;10.3;14.7;;;;;;;26.7;100;97750;;;;
2022/08/15 11:48:57;;;;;;;10.3;14.7;;;;;;;26.6;100;97740;;;;
2022/08/15 11:58:57;;;;;;;10.3;14.7;;;;;;;26.7;100;97740;;;;
2022/08/15 12:09:57;;;;;;;10.4;12.6;;;;;;;27.2;100;97740;;;;
2022/08/15 12:19:57;;;;;;;10.4;12.6;;;;;;;27.6;100;97720;;;;
2022/08/15 12:29:57;;;;;;;10.4;12.6;;;;;;;27.5;100;97720;;;;
2022/08/15 12:40:57;;;;;;;10.1;13.4;;;;;;;28;100;97730;;;;
2022/08/15 12:50:57;;;;;;;10.1;13.4;;;;;;;28.2;100;97710;;;;
2022/08/15 13:00:57;;;;;;;10.1;13.4;;;;;;;28;100;97710;;;;
2022/08/15 13:11:59;;;;;;;8.8;12.1;;;;;;;28.4;100;97700;;;;
2022/08/15 13:32:57;;;;;;;8.8;12.1;;;;;;;28.7;100;97680;;;;
2022/08/15 13:43:59;;;;;;;8.6;11.6;;;;;;;29.4;100;97670;;;;
2022/08/15 13:53:57;;;;;;;8.6;11.6;;;;;;;29.4;100;97670;;;;
2022/08/15 14:03:57;;;;;;;9.1;12.5;;;;;;;29.8;100;97670;;;;
2022/08/15 14:13:58;;;;;;;9.1;12.5;;;;;;;30;100;97660;;;;
2022/08/15 14:23:57;;;;;;;9.1;12.5;;;;;;;29.8;100;97670;;;;
2022/08/15 14:34:57;;;;;;;7.4;9.9;;;;;;;29;100;97680;;;;
2022/08/15 14:44:57;;;;;;;7.4;9.9;;;;;;;28.4;100;97680;;;;
2022/08/15 14:55:57;;;;;;;7.4;9.9;;;;;;;27.7;100;97690;;;;
2022/08/15 15:05:57;;;;;;;7.5;10.2;;;;;;;27.6;100;97700;;;;
2022/08/15 15:16:57;;;;;;;7.5;10.2;;;;;;;27.3;100;97680;;;;
2022/08/15 15:26:57;;;;;;;7.5;10.2;;;;;;;27;100;97670;;;;
2022/08/15 15:36:57;;;;;;;9;13;;;;;;;26.8;100;97680;;;;
2022/08/15 15:47:57;;;;;;;9;13;;;;;;;26.5;100;97700;;;;
2022/08/15 15:58:57;;;;;;;9;13;;;;;;;26.3;100;97700;;;;
2022/08/15 16:08:57;;;;;;;7.8;11.2;;;;;;;26.1;100;97700;;;;
2022/08/15 16:18:57;;;;;;;7.8;11.2;;;;;;;24.4;100;97710;;;;
2022/08/15 16:28:59;;;;;;;7.8;11.2;;;;;;;23.8;100;97710;;;;
2022/08/15 16:39:57;;;;;;;7.5;12.1;;;;;;;23.5;100;97680;;;;
2022/08/15 16:49:57;;;;;;;7.5;12.1;;;;;;;23.4;100;97660;;;;
2022/08/15 16:59:57;;;;;;;7.5;12.1;;;;;;;23.3;100;97660;;;;
2022/08/15 17:10:59;;;;;;;4.9;8.1;;;;;;;23.3;100;97650;;;;
2022/08/15 17:20:57;;;;;;;4.9;8.1;;;;;;;23.3;100;97640;;;;
2022/08/15 17:30:58;;;;;;;4.9;8.1;;;;;;;23.6;100;97650;;;;
2022/08/15 17:40:57;;;;;;;3.5;6.8;;;;;;;23.5;100;97650;;;;
2022/08/15 17:51:57;;;;;;;3.5;6.8;;;;;;;23.2;100;97650;;;;
2022/08/15 18:01:58;;;;;;;3.5;6.8;;;;;;;23;100;97650;;;;
2022/08/15 18:12:58;;;;;;;5.4;8.3;;;;;;;22.6;100;97650;;;;
2022/08/15 18:22:57;;;;;;;5.4;8.3;;;;;;;22.4;100;97670;;;;
2022/08/15 18:33:57;;;;;;;6.4;9.7;;;;;;;22.2;100;97700;;;;
2022/08/15 18:43:57;;;;;;;6.4;9.7;;;;;;;21.8;100;97720;;;;
2022/08/15 18:53:57;;;;;;;6.4;9.7;;;;;;;21.6;100;97740;;;;
2022/08/15 19:04:57;;;;;;;4.6;7.8;;;;;;;21.5;100;97750;;;;
2022/08/15 19:15:57;;;;;;;4.6;7.8;;;;;;;21.4;100;97760;;;;
2022/08/15 19:26:58;;;;;;;4.6;7.8;;;;;;;21.2;100;97770;;;;
2022/08/15 19:36:57;;;;;;;4.9;8;;;;;;;21;100;97770;;;;
2022/08/15 19:46:58;;;;;;;4.9;8;;;;;;;21.1;100;97770;;;;
2022/08/15 19:56:58;;;;;;;4.9;8;;;;;;;21;100;97770;;;;
2022/08/15 20:07:58;;;;;;;4.9;8.4;;;;;;;20.8;100;97770;;;;
2022/08/15 20:17:59;;;;;;;4.9;8.4;;;;;;;20.9;100;97780;;;;
2022/08/15 20:27:57;;;;;;;4.9;8.4;;;;;;;20.9;100;97780;;;;
2022/08/15 20:39:00;;;;;;;4.8;8.7;;;;;;;20.8;100;97780;;;;
2022/08/15 20:49:58;;;;;;;4.8;8.7;;;;;;;20.9;100;97780;;;;
2022/08/15 21:00:57;;;;;;;4.8;8.7;;;;;;;20.8;100;97770;;;;
2022/08/15 21:11:57;;;;;;;5.5;8;;;;;;;20.8;100;97760;;;;
2022/08/15 21:22:57;;;;;;;5.5;8;;;;;;;20.6;100;97770;;;;
2022/08/15 21:32:57;;;;;;;5.5;8;;;;;;;20.4;100;97770;;;;
2022/08/15 21:43:57;;;;;;;6.1;8;;;;;;;19.9;100;97780;;;;
2022/08/15 21:54:58;;;;;;;6.1;8;;;;;;;19.8;100;97780;;;;
2022/08/15 22:04:57;;;;;;;7.2;11.9;;;;;;;19.6;100;97790;;;;
2022/08/15 22:14:57;;;;;;;7.2;11.9;;;;;;;19.3;100;97790;;;;
2022/08/15 22:24:57;;;;;;;7.2;11.9;;;;;;;19;100;97780;;;;
2022/08/15 22:35:58;;;;;;;7.3;10.4;;;;;;;18.8;100;97780;;;;
2022/08/15 22:46:58;;;;;;;7.3;10.4;;;;;;;18.7;100;97790;;;;
2022/08/15 22:56:57;;;;;;;7.3;10.4;;;;;;;18.6;100;97780;;;;
2022/08/15 23:07:58;;;;;;;7.3;12.5;;;;;;;18.5;100;97780;;;;
2022/08/15 23:17:57;;;;;;;7.3;12.5;;;;;;;18.3;100;97760;;;;
2022/08/15 23:28:58;;;;;;;7.3;12.5;;;;;;;18.1;100;97760;;;;
2022/08/15 23:39:57;;;;;;;7.5;12;;;;;;;18;100;97760;;;;
2022/08/15 23:50:57;;;;;;;7.5;12;;;;;;;17.9;100;97760;;;;
